Time;durP1;ratioP1;P1;durP2;ratioP2;P2;SDS_P1;SDS_P2;PMS_P1;PMS_P2;Temp;Humidity;BMP_temperature;BMP_pressure;BME280_temperature;BME280_humidity;BME280_pressure;Samples;Min_cycle;Max_cycle;Signal;HPM_P1;HPM_P2
2023/05/03 00:01:32;;;;;;;;;;;;;;;5.93;100.00;102817.03;5122920;28;19915;-73
2023/05/03 00:04:02;;;;;;;;;;;;;;;5.88;100.00;102816.41;5122777;28;19926;-73
2023/05/03 00:06:33;;;;;;;;;;;;;;;5.81;100.00;102812.34;5120549;28;19918;-73
2023/05/03 00:09:03;;;;;;;;;;;;;;;5.75;100.00;102810.03;5135994;28;19998;-72
2023/05/03 00:11:33;;;;;;;;;;;;;;;5.70;100.00;102810.28;5122149;28;19945;-72
2023/05/03 00:14:04;;;;;;;;;;;;;;;5.67;100.00;102807.78;5129668;28;19925;-73
2023/05/03 00:16:34;;;;;;;;;;;;;;;5.59;100.00;102808.25;5133576;28;19922;-73
2023/05/03 00:19:05;;;;;;;;;;;;;;;5.56;100.00;102807.53;5134713;28;20022;-72
2023/05/03 00:21:36;;;;;;;;;;;;;;;5.53;100.00;102802.41;5139585;28;19914;-72
2023/05/03 00:24:06;;;;;;;;;;;;;;;5.50;100.00;102805.22;5122741;28;19918;-72
2023/05/03 00:26:36;;;;;;;;;;;;;;;5.48;100.00;102812.47;5124787;28;19918;-73
2023/05/03 00:29:07;;;;;;;;;;;;;;;5.44;100.00;102812.63;5131854;28;19914;-72
2023/05/03 00:31:40;;;;;;;;;;;;;;;5.40;100.00;102807.53;5121621;28;19969;-72
2023/05/03 00:34:10;;;;;;;;;;;;;;;5.33;100.00;102801.72;5121987;28;19915;-73
2023/05/03 00:36:41;;;;;;;;;;;;;;;5.29;100.00;102802.81;5121106;28;20274;-73
2023/05/03 00:39:11;;;;;;;;;;;;;;;5.26;100.00;102796.78;5124574;28;20371;-73
2023/05/03 00:41:41;;;;;;;;;;;;;;;5.23;100.00;102797.84;5121289;28;19923;-73
2023/05/03 00:44:12;;;;;;;;;;;;;;;5.22;100.00;102792.56;5122741;28;20303;-72
2023/05/03 00:46:42;;;;;;;;;;;;;;;5.19;100.00;102798.94;5120816;28;19922;-73
2023/05/03 00:49:12;;;;;;;;;;;;;;;5.17;100.00;102788.38;5121397;28;19919;-72
2023/05/03 00:51:43;;;;;;;;;;;;;;;5.14;100.00;102793.88;5130009;28;19925;-73
2023/05/03 00:54:13;;;;;;;;;;;;;;;5.11;100.00;102790.50;5125060;28;20012;-73
2023/05/03 00:56:44;;;;;;;;;;;;;;;5.08;100.00;102783.56;5120621;28;19969;-72
2023/05/03 00:59:14;;;;;;;;;;;;;;;5.04;100.00;102783.81;5122143;28;20295;-72
2023/05/03 01:01:47;;;;;;;;;;;;;;;5.01;100.00;102783.97;5120871;28;20384;-72
2023/05/03 01:04:20;;;;;;;;;;;;;;;4.98;100.00;102776.16;5121510;28;19925;-72
2023/05/03 01:06:50;;;;;;;;;;;;;;;4.94;100.00;102778.13;5120273;28;19926;-72
2023/05/03 01:09:27;;;;;;;;;;;;;;;4.92;100.00;102778.22;5122662;28;19914;-72
2023/05/03 01:12:05;;;;;;;;;;;;;;;4.89;100.00;102778.38;5121897;28;20068;-72
2023/05/03 01:14:39;;;;;;;;;;;;;;;4.88;100.00;102774.00;5122275;28;19915;-72
2023/05/03 01:17:11;;;;;;;;;;;;;;;4.85;100.00;102774.16;5126250;28;19914;-72
2023/05/03 01:19:43;;;;;;;;;;;;;;;4.84;100.00;102780.41;5125985;28;20302;-72
2023/05/03 01:22:16;;;;;;;;;;;;;;;4.85;100.00;102787.44;5134596;28;20005;-72
2023/05/03 01:25:08;;;;;;;;;;;;;;;4.83;100.00;102788.50;5120959;28;20444;-73
2023/05/03 01:27:39;;;;;;;;;;;;;;;4.82;100.00;102789.41;5120578;28;19915;-72
2023/05/03 01:30:10;;;;;;;;;;;;;;;4.83;100.00;102793.81;5121606;28;20372;-72
2023/05/03 01:33:03;;;;;;;;;;;;;;;4.81;100.00;102796.53;5121527;28;20371;-73
2023/05/03 01:35:36;;;;;;;;;;;;;;;4.82;100.00;102792.06;5121980;28;19918;-72
2023/05/03 01:38:07;;;;;;;;;;;;;;;4.83;100.00;102788.50;5120201;28;20009;-72
2023/05/03 01:40:40;;;;;;;;;;;;;;;4.83;100.00;102796.47;5135600;28;20298;-72
2023/05/03 01:43:12;;;;;;;;;;;;;;;4.80;100.00;102794.81;5141163;28;19914;-72
2023/05/03 01:45:42;;;;;;;;;;;;;;;4.79;100.00;102793.09;5127745;28;19923;-72
2023/05/03 01:48:15;;;;;;;;;;;;;;;4.76;100.00;102793.25;5119490;28;20001;-72
2023/05/03 01:50:46;;;;;;;;;;;;;;;4.73;100.00;102792.59;5122380;28;20338;-72
2023/05/03 01:53:16;;;;;;;;;;;;;;;4.69;100.00;102789.22;5141743;28;19944;-72
2023/05/03 01:55:47;;;;;;;;;;;;;;;4.66;100.00;102789.34;5124855;28;19918;-72
2023/05/03 01:58:18;;;;;;;;;;;;;;;4.64;100.00;102788.59;5120291;28;20346;-72
2023/05/03 02:00:58;;;;;;;;;;;;;;;4.64;100.00;102783.28;5121183;28;19969;-72
2023/05/03 02:03:32;;;;;;;;;;;;;;;4.62;100.00;102777.19;5120790;28;19923;-72
2023/05/03 02:06:02;;;;;;;;;;;;;;;4.62;100.00;102780.72;5121875;28;19997;-72
2023/05/03 02:08:33;;;;;;;;;;;;;;;4.61;100.00;102773.66;5133785;28;20355;-72
2023/05/03 02:11:08;;;;;;;;;;;;;;;4.62;100.00;102769.22;5121536;28;19914;-72
2023/05/03 02:13:38;;;;;;;;;;;;;;;4.61;100.00;102768.34;5124596;28;20406;-72
2023/05/03 02:16:09;;;;;;;;;;;;;;;4.65;100.00;102769.03;5135166;28;20371;-72
2023/05/03 02:18:40;;;;;;;;;;;;;;;4.65;100.00;102764.56;5130742;28;19914;-72
2023/05/03 02:21:12;;;;;;;;;;;;;;;4.63;100.00;102749.66;5137376;28;19918;-72
2023/05/03 02:23:43;;;;;;;;;;;;;;;4.59;100.00;102748.09;5124758;28;19944;-72
2023/05/03 02:26:13;;;;;;;;;;;;;;;4.56;100.00;102738.47;5137032;28;19918;-72
2023/05/03 02:28:44;;;;;;;;;;;;;;;4.58;100.00;102735.75;5130844;28;20339;-72
2023/05/03 02:31:14;;;;;;;;;;;;;;;4.57;100.00;102734.91;5143325;28;20445;-72
2023/05/03 02:33:44;;;;;;;;;;;;;;;4.55;100.00;102735.91;5143478;28;19996;-72
2023/05/03 02:36:15;;;;;;;;;;;;;;;4.52;100.00;102749.34;5141299;28;19914;-72
2023/05/03 02:38:46;;;;;;;;;;;;;;;4.50;100.00;102751.25;5134089;28;19992;-72
2023/05/03 02:41:16;;;;;;;;;;;;;;;4.44;100.00;102744.44;5139195;28;19922;-72
2023/05/03 02:43:46;;;;;;;;;;;;;;;4.42;100.00;102741.03;5135916;28;20310;-72
2023/05/03 02:46:17;;;;;;;;;;;;;;;4.40;100.00;102743.75;5127792;28;19915;-72
2023/05/03 02:48:47;;;;;;;;;;;;;;;4.37;100.00;102746.56;5135513;28;20379;-72
2023/05/03 02:51:18;;;;;;;;;;;;;;;4.34;100.00;102756.50;5137132;28;20009;-72
2023/05/03 02:53:48;;;;;;;;;;;;;;;4.31;100.00;102767.28;5125083;28;19957;-72
2023/05/03 02:56:18;;;;;;;;;;;;;;;4.26;100.00;102762.19;5142919;28;19914;-72
2023/05/03 02:58:49;;;;;;;;;;;;;;;4.22;100.00;102767.75;5141926;28;19957;-72
2023/05/03 03:01:19;;;;;;;;;;;;;;;4.21;100.00;102761.56;5143587;28;20426;-72
2023/05/03 03:03:50;;;;;;;;;;;;;;;4.20;100.00;102761.66;5143042;28;19926;-72
2023/05/03 03:06:21;;;;;;;;;;;;;;;4.18;100.00;102759.09;5143222;28;19914;-72
2023/05/03 03:08:51;;;;;;;;;;;;;;;4.19;100.00;102757.28;5142414;28;20307;-72
2023/05/03 03:11:22;;;;;;;;;;;;;;;4.18;100.00;102752.91;5142217;28;19925;-72
2023/05/03 03:13:53;;;;;;;;;;;;;;;4.15;100.00;102751.25;5142645;28;19910;-72
2023/05/03 03:16:23;;;;;;;;;;;;;;;4.14;100.00;102744.22;5141500;28;19914;-72
2023/05/03 03:18:54;;;;;;;;;;;;;;;4.11;100.00;102739.91;5142834;28;19988;-72
2023/05/03 03:21:24;;;;;;;;;;;;;;;4.09;100.00;102727.69;5141468;28;19914;-72
2023/05/03 03:23:55;;;;;;;;;;;;;;;4.02;100.00;102727.13;5123088;28;19919;-72
2023/05/03 03:26:25;;;;;;;;;;;;;;;3.98;100.00;102725.56;5122574;28;20283;-72
2023/05/03 03:28:55;;;;;;;;;;;;;;;3.95;100.00;102735.47;5124308;28;19922;-72
2023/05/03 03:31:26;;;;;;;;;;;;;;;3.90;100.00;102741.03;5122722;28;20461;-72
2023/05/03 03:33:56;;;;;;;;;;;;;;;3.86;100.00;102750.94;5124036;28;19914;-72
2023/05/03 03:36:27;;;;;;;;;;;;;;;3.84;100.00;102749.28;5122572;28;19937;-72
2023/05/03 03:38:57;;;;;;;;;;;;;;;3.82;100.00;102749.38;5134923;28;20353;-72
2023/05/03 03:41:28;;;;;;;;;;;;;;;3.81;100.00;102746.78;5137384;28;19922;-72
2023/05/03 03:43:58;;;;;;;;;;;;;;;3.80;100.00;102750.38;5124537;28;19918;-72
2023/05/03 03:46:28;;;;;;;;;;;;;;;3.81;100.00;102752.09;5122440;28;19969;-72
2023/05/03 03:48:59;;;;;;;;;;;;;;;3.78;100.00;102765.53;5124029;28;19915;-72
2023/05/03 03:51:30;;;;;;;;;;;;;;;3.76;100.00;102764.72;5136143;28;19915;-72
2023/05/03 03:54:00;;;;;;;;;;;;;;;3.76;100.00;102762.94;5136282;28;19914;-72
2023/05/03 03:56:30;;;;;;;;;;;;;;;3.75;100.00;102765.69;5122362;28;19961;-72
2023/05/03 03:59:01;;;;;;;;;;;;;;;3.76;100.00;102768.25;5123522;28;19914;-73
2023/05/03 04:01:31;;;;;;;;;;;;;;;3.73;100.00;102779.03;5122273;28;19915;-72
2023/05/03 04:04:01;;;;;;;;;;;;;;;3.74;100.00;102783.41;5122978;28;19929;-72
2023/05/03 04:06:32;;;;;;;;;;;;;;;3.74;100.00;102785.19;5122278;28;20009;-72
2023/05/03 04:09:02;;;;;;;;;;;;;;;3.76;100.00;102786.81;5123213;28;19915;-72
2023/05/03 04:11:32;;;;;;;;;;;;;;;3.73;100.00;102797.63;5135144;28;20386;-72
2023/05/03 04:14:03;;;;;;;;;;;;;;;3.72;100.00;102792.38;5124122;28;20135;-72
2023/05/03 04:16:33;;;;;;;;;;;;;;;3.67;100.00;102792.59;5121686;28;20473;-72
2023/05/03 04:19:04;;;;;;;;;;;;;;;3.61;100.00;102784.91;5134918;28;19914;-72
2023/05/03 04:21:34;;;;;;;;;;;;;;;3.56;100.00;102784.28;5140781;28;19914;-72
2023/05/03 04:24:05;;;;;;;;;;;;;;;3.53;100.00;102787.09;5121626;28;19971;-72
2023/05/03 04:26:39;;;;;;;;;;;;;;;3.52;100.00;102791.56;5121662;28;19915;-72
2023/05/03 04:29:10;;;;;;;;;;;;;;;3.51;100.00;102787.16;5123242;28;20380;-72
2023/05/03 04:31:41;;;;;;;;;;;;;;;3.50;100.00;102790.75;5121495;28;19988;-72
2023/05/03 04:34:14;;;;;;;;;;;;;;;3.52;100.00;102801.31;5123455;28;20008;-72
2023/05/03 04:36:45;;;;;;;;;;;;;;;3.54;100.00;102804.72;5121392;28;19923;-72
2023/05/03 04:39:15;;;;;;;;;;;;;;;3.54;100.00;102810.91;5125487;28;20398;-72
2023/05/03 04:41:46;;;;;;;;;;;;;;;3.55;100.00;102809.97;5142260;28;19914;-72
2023/05/03 04:44:16;;;;;;;;;;;;;;;3.56;100.00;102824.94;5127755;28;19926;-72
2023/05/03 04:46:46;;;;;;;;;;;;;;;3.58;100.00;102817.78;5121548;28;19914;-73
2023/05/03 04:49:17;;;;;;;;;;;;;;;3.61;100.00;102812.34;5122630;28;19946;-72
2023/05/03 04:51:47;;;;;;;;;;;;;;;3.64;100.00;102820.16;5130773;28;20061;-72
2023/05/03 04:54:17;;;;;;;;;;;;;;;3.70;100.00;102816.34;5137885;28;19989;-72
2023/05/03 04:56:48;;;;;;;;;;;;;;;3.78;100.00;102822.16;5121532;28;19922;-72
2023/05/03 04:59:18;;;;;;;;;;;;;;;3.83;100.00;102822.78;5122813;28;19915;-72
2023/05/03 05:01:48;;;;;;;;;;;;;;;3.89;100.00;102832.25;5121426;28;19974;-72
2023/05/03 05:04:19;;;;;;;;;;;;;;;3.94;100.00;102827.56;5122056;28;19919;-72
2023/05/03 05:06:50;;;;;;;;;;;;;;;4.01;100.00;102820.16;5134330;28;19920;-72
2023/05/03 05:09:21;;;;;;;;;;;;;;;4.08;100.00;102825.09;5122487;28;20069;-73
2023/05/03 05:11:51;;;;;;;;;;;;;;;4.16;100.00;102822.03;5122026;28;19914;-72
2023/05/03 05:14:22;;;;;;;;;;;;;;;4.24;100.00;102816.38;5122634;28;20060;-72
2023/05/03 05:16:52;;;;;;;;;;;;;;;4.31;100.00;102823.94;5132434;28;19930;-72
2023/05/03 05:19:23;;;;;;;;;;;;;;;4.40;100.00;102826.13;5126831;28;19923;-72
2023/05/03 05:21:53;;;;;;;;;;;;;;;4.48;100.00;102822.25;5135154;28;19921;-72
2023/05/03 05:24:23;;;;;;;;;;;;;;;4.55;100.00;102820.97;5132541;28;20390;-72
2023/05/03 05:26:54;;;;;;;;;;;;;;;4.63;100.00;102824.09;5122486;28;19914;-72
2023/05/03 05:29:24;;;;;;;;;;;;;;;4.72;100.00;102822.75;5119900;28;19974;-73
2023/05/03 05:31:55;;;;;;;;;;;;;;;4.80;100.00;102820.56;5122028;28;19966;-72
2023/05/03 05:34:25;;;;;;;;;;;;;;;4.89;100.00;102826.25;5133800;28;19920;-72
2023/05/03 05:36:56;;;;;;;;;;;;;;;4.99;100.00;102826.63;5121032;28;19914;-72
2023/05/03 05:39:26;;;;;;;;;;;;;;;5.06;100.00;102833.31;5124351;28;19914;-73
2023/05/03 05:41:57;;;;;;;;;;;;;;;5.16;100.00;102818.56;5121606;28;19918;-72
2023/05/03 05:44:29;;;;;;;;;;;;;;;5.30;100.00;102819.63;5136545;28;19922;-72
2023/05/03 05:46:59;;;;;;;;;;;;;;;5.39;100.00;102820.00;5127887;28;19948;-72
2023/05/03 05:49:30;;;;;;;;;;;;;;;5.64;100.00;102829.28;5127667;28;19914;-72
2023/05/03 05:52:00;;;;;;;;;;;;;;;6.11;100.00;102831.06;5134588;28;19918;-73
2023/05/03 05:54:31;;;;;;;;;;;;;;;6.86;100.00;102827.44;5136424;28;19918;-73
2023/05/03 05:57:01;;;;;;;;;;;;;;;7.57;100.00;102823.03;5134454;28;19969;-73
2023/05/03 05:59:32;;;;;;;;;;;;;;;8.12;100.00;102828.28;5122075;28;19918;-73
2023/05/03 06:02:02;;;;;;;;;;;;;;;8.54;100.00;102827.28;5136730;28;19917;-73
2023/05/03 06:04:33;;;;;;;;;;;;;;;8.82;100.00;102833.38;5123376;28;19929;-73
2023/05/03 06:07:03;;;;;;;;;;;;;;;8.91;100.00;102830.06;5135141;28;20040;-73
2023/05/03 06:09:33;;;;;;;;;;;;;;;9.07;100.00;102829.84;5122657;28;20576;-73
2023/05/03 06:12:04;;;;;;;;;;;;;;;9.34;100.00;102829.72;5123679;28;19921;-73
2023/05/03 06:14:34;;;;;;;;;;;;;;;9.78;100.00;102823.78;5134302;28;19921;-73
2023/05/03 06:17:05;;;;;;;;;;;;;;;10.00;100.00;102820.38;5135873;28;20288;-73
2023/05/03 06:19:35;;;;;;;;;;;;;;;10.31;100.00;102820.78;5126633;28;19918;-72
2023/05/03 06:22:05;;;;;;;;;;;;;;;10.36;100.00;102822.16;5141918;28;19920;-73
2023/05/03 06:24:36;;;;;;;;;;;;;;;10.81;100.00;102824.09;5129565;28;19962;-73
2023/05/03 06:27:06;;;;;;;;;;;;;;;10.61;100.00;102829.19;5121832;28;20375;-73
2023/05/03 06:29:37;;;;;;;;;;;;;;;10.78;100.00;102822.50;5124378;28;20360;-73
2023/05/03 06:32:07;;;;;;;;;;;;;;;11.27;100.00;102818.63;5131289;28;20021;-73
2023/05/03 06:34:38;;;;;;;;;;;;;;;11.62;100.00;102809.53;5129800;28;19922;-73
2023/05/03 06:37:08;;;;;;;;;;;;;;;11.85;100.00;102815.75;5126115;28;20033;-74
2023/05/03 06:39:38;;;;;;;;;;;;;;;11.91;100.00;102812.56;5122264;28;20735;-73
2023/05/03 06:42:09;;;;;;;;;;;;;;;12.11;100.00;102803.69;5126072;28;19918;-73
2023/05/03 06:44:39;;;;;;;;;;;;;;;12.10;100.00;102804.66;5125119;28;20308;-73
2023/05/03 06:47:10;;;;;;;;;;;;;;;12.18;100.00;102799.47;5127903;28;19929;-73
2023/05/03 06:49:40;;;;;;;;;;;;;;;12.12;100.00;102797.31;5124746;28;20586;-73
2023/05/03 06:52:11;;;;;;;;;;;;;;;12.50;100.00;102793.22;5127985;28;19918;-73
2023/05/03 06:54:41;;;;;;;;;;;;;;;12.69;100.00;102790.63;5123058;28;19922;-73
2023/05/03 06:57:11;;;;;;;;;;;;;;;13.16;100.00;102793.69;5127101;28;19959;-73
2023/05/03 06:59:45;;;;;;;;;;;;;;;13.48;100.00;102793.53;5131682;28;19929;-73
2023/05/03 07:02:16;;;;;;;;;;;;;;;13.34;100.00;102801.16;5126720;28;19914;-73
2023/05/03 07:04:46;;;;;;;;;;;;;;;13.66;100.00;102793.72;5127809;28;19918;-73
2023/05/03 07:07:17;;;;;;;;;;;;;;;13.73;100.00;102794.88;5127456;28;19946;-73
2023/05/03 07:09:47;;;;;;;;;;;;;;;13.80;100.00;102792.44;5126948;28;19957;-73
2023/05/03 07:12:17;;;;;;;;;;;;;;;13.69;100.00;102792.59;5121515;28;20310;-73
2023/05/03 07:14:48;;;;;;;;;;;;;;;13.76;100.00;102787.50;5121592;28;20017;-74
2023/05/03 07:17:18;;;;;;;;;;;;;;;14.30;100.00;102786.91;5126214;28;19918;-73
2023/05/03 07:19:49;;;;;;;;;;;;;;;14.15;100.00;102786.50;5128678;28;19922;-73
2023/05/03 07:22:23;;;;;;;;;;;;;;;14.00;100.00;102786.06;5131697;28;20030;-73
2023/05/03 07:24:54;;;;;;;;;;;;;;;13.72;100.00;102789.63;5124161;28;19922;-73
2023/05/03 07:27:25;;;;;;;;;;;;;;;13.80;100.00;102786.22;5122833;28;20379;-73
2023/05/03 07:29:56;;;;;;;;;;;;;;;13.64;100.00;102782.22;5127251;28;20324;-73
2023/05/03 07:32:26;;;;;;;;;;;;;;;13.62;100.00;102775.28;5130196;28;20001;-73
2023/05/03 07:34:56;;;;;;;;;;;;;;;13.93;100.00;102784.09;5133195;28;20380;-73
2023/05/03 07:37:27;;;;;;;;;;;;;;;14.37;100.00;102784.53;5128279;28;19914;-73
2023/05/03 07:39:57;;;;;;;;;;;;;;;14.42;100.00;102774.13;5122077;28;19914;-74
2023/05/03 07:42:27;;;;;;;;;;;;;;;14.89;100.00;102771.47;5127888;28;19976;-73
2023/05/03 07:44:59;;;;;;;;;;;;;;;14.98;100.00;102768.72;5129813;28;19926;-73
2023/05/03 07:47:30;;;;;;;;;;;;;;;14.74;100.00;102769.25;5121519;28;19961;-74
2023/05/03 07:50:00;;;;;;;;;;;;;;;14.99;100.00;102767.72;5124506;28;20071;-74
2023/05/03 07:52:50;;;;;;;;;;;;;;;15.23;100.00;102763.66;5122147;28;19973;-74
2023/05/03 07:55:20;;;;;;;;;;;;;;;15.96;100.00;102771.72;5127960;28;20005;-73
2023/05/03 07:57:52;;;;;;;;;;;;;;;15.95;100.00;102770.88;5123218;28;19946;-73
2023/05/03 08:00:22;;;;;;;;;;;;;;;16.46;100.00;102762.97;5125819;28;19924;-74
2023/05/03 08:02:53;;;;;;;;;;;;;;;16.14;100.00;102767.16;5132099;28;19918;-73
2023/05/03 08:05:23;;;;;;;;;;;;;;;16.04;100.00;102760.97;5123303;28;19923;-74
2023/05/03 08:07:53;;;;;;;;;;;;;;;15.94;100.00;102760.19;5125055;28;19915;-74
2023/05/03 08:10:24;;;;;;;;;;;;;;;15.84;100.00;102762.13;5127537;28;19980;-73
2023/05/03 08:12:54;;;;;;;;;;;;;;;15.83;100.00;102755.03;5128843;28;19968;-73
2023/05/03 08:15:24;;;;;;;;;;;;;;;16.06;100.00;102761.66;5122242;28;19914;-73
2023/05/03 08:17:55;;;;;;;;;;;;;;;16.22;100.00;102759.09;5134163;28;19922;-73
2023/05/03 08:20:26;;;;;;;;;;;;;;;16.31;100.00;102755.47;5126109;28;19914;-73
2023/05/03 08:22:57;;;;;;;;;;;;;;;16.72;100.00;102746.78;5122980;28;19925;-73
2023/05/03 08:25:27;;;;;;;;;;;;;;;16.50;100.00;102748.97;5125738;28;19930;-73
2023/05/03 08:27:57;;;;;;;;;;;;;;;16.10;100.00;102754.94;5124266;28;19918;-73
2023/05/03 08:30:29;;;;;;;;;;;;;;;16.21;100.00;102751.13;5121097;28;19914;-74
2023/05/03 08:32:59;;;;;;;;;;;;;;;16.12;100.00;102739.41;5126533;28;19960;-73
2023/05/03 08:35:30;;;;;;;;;;;;;;;15.74;100.00;102743.28;5119090;28;20339;-73
2023/05/03 08:38:01;;;;;;;;;;;;;;;15.36;100.00;102744.34;5121638;28;19925;-73
2023/05/03 08:40:36;;;;;;;;;;;;;;;15.40;100.00;102757.41;5120451;28;19918;-73
2023/05/03 08:43:08;;;;;;;;;;;;;;;15.87;100.00;102759.13;5118193;28;20323;-74
2023/05/03 08:45:39;;;;;;;;;;;;;;;16.10;100.00;102749.50;5120500;28;19973;-74
2023/05/03 08:48:10;;;;;;;;;;;;;;;16.58;100.00;102740.91;5116260;28;19919;-74
2023/05/03 08:50:41;;;;;;;;;;;;;;;15.56;100.00;102743.22;5118969;28;19918;-73
2023/05/03 08:53:11;;;;;;;;;;;;;;;15.16;100.00;102741.78;5126737;28;19960;-74
2023/05/03 08:55:43;;;;;;;;;;;;;;;15.83;100.00;102741.50;5056299;28;1863775;-74
2023/05/03 08:58:13;;;;;;;;;;;;;;;16.36;100.00;102737.84;5126498;28;20331;-74
2023/05/03 09:00:44;;;;;;;;;;;;;;;16.60;97.08;102737.19;5121765;28;19922;-73
2023/05/03 09:03:14;;;;;;;;;;;;;;;16.35;95.17;102733.47;5126149;28;19915;-74
2023/05/03 09:05:45;;;;;;;;;;;;;;;16.50;100.00;102742.69;5120325;28;20507;-74
2023/05/03 09:08:15;;;;;;;;;;;;;;;16.73;100.00;102745.78;5121805;28;20351;-74
2023/05/03 09:10:46;;;;;;;;;;;;;;;16.38;100.00;102738.56;5124420;28;20008;-74
2023/05/03 09:13:16;;;;;;;;;;;;;;;16.97;100.00;102745.91;5127841;28;19922;-74
2023/05/03 09:16:05;;;;;;;;;;;;;;;17.18;94.55;102745.47;5124608;28;20425;-73
2023/05/03 09:18:36;;;;;;;;;;;;;;;16.18;98.80;102746.03;5127631;28;19919;-74
2023/05/03 09:21:06;;;;;;;;;;;;;;;16.49;100.00;102738.31;5123495;28;20020;-74
2023/05/03 09:23:38;;;;;;;;;;;;;;;16.63;93.37;102732.28;5125994;28;19922;-74
2023/05/03 09:26:08;;;;;;;;;;;;;;;17.12;97.89;102735.28;5125340;28;19914;-74
2023/05/03 09:28:39;;;;;;;;;;;;;;;17.07;89.12;102729.50;5121900;28;19925;-74
2023/05/03 09:31:10;;;;;;;;;;;;;;;17.12;92.96;102732.56;5126838;28;19915;-74
2023/05/03 09:33:40;;;;;;;;;;;;;;;17.31;83.78;102739.56;5126003;28;19921;-74
2023/05/03 09:36:11;;;;;;;;;;;;;;;17.43;85.50;102735.53;5127671;28;19918;-74
2023/05/03 09:38:41;;;;;;;;;;;;;;;17.32;84.08;102738.56;5123492;28;20482;-74
2023/05/03 09:41:11;;;;;;;;;;;;;;;17.06;82.02;102735.91;5124533;28;20011;-74
2023/05/03 09:44:01;;;;;;;;;;;;;;;16.89;87.75;102736.88;5126098;28;19962;-74
2023/05/03 09:46:32;;;;;;;;;;;;;;;17.12;86.82;102735.28;5126893;28;19915;-74
2023/05/03 09:49:03;;;;;;;;;;;;;;;17.03;85.67;102736.25;5138567;28;20310;-75
2023/05/03 09:51:34;;;;;;;;;;;;;;;17.02;90.21;102732.69;5146977;28;20057;-74
2023/05/03 09:54:04;;;;;;;;;;;;;;;17.27;87.18;102730.94;5139937;28;20007;-74
2023/05/03 09:56:37;;;;;;;;;;;;;;;16.77;82.34;102726.31;5122056;28;19915;-74
2023/05/03 09:59:11;;;;;;;;;;;;;;;16.83;88.53;102725.66;5123247;28;19922;-74
2023/05/03 10:01:43;;;;;;;;;;;;;;;17.21;82.12;102720.72;5122637;28;19923;-74
2023/05/03 10:04:18;;;;;;;;;;;;;;;17.01;84.01;102722.84;5122827;28;20045;-74
2023/05/03 10:06:49;;;;;;;;;;;;;;;17.52;90.21;102717.41;5121745;28;19989;-75
2023/05/03 10:09:22;;;;;;;;;;;;;;;17.35;87.41;102708.38;5135253;28;19922;-75
2023/05/03 10:11:53;;;;;;;;;;;;;;;17.99;92.52;102712.22;5122341;28;20422;-74
2023/05/03 10:14:27;;;;;;;;;;;;;;;18.01;79.60;102703.91;5123475;28;19922;-74
2023/05/03 10:16:59;;;;;;;;;;;;;;;18.19;94.55;102703.72;5133791;28;19926;-74
2023/05/03 10:19:45;;;;;;;;;;;;;;;17.83;79.52;102702.22;5126365;28;19915;-75
2023/05/03 10:22:15;;;;;;;;;;;;;;;17.68;83.14;102701.16;5123863;28;19966;-74
2023/05/03 10:25:12;;;;;;;;;;;;;;;17.68;77.01;102701.16;5127294;28;19951;-74
2023/05/03 10:27:59;;;;;;;;;;;;;;;16.90;79.91;102689.75;5119790;28;20009;-74
2023/05/03 10:30:31;;;;;;;;;;;;;;;16.91;93.95;102695.00;5122509;28;20039;-74
2023/05/03 10:33:12;;;;;;;;;;;;;;;16.93;89.03;102692.16;5122178;28;20437;-74
2023/05/03 10:35:48;;;;;;;;;;;;;;;17.48;94.12;102695.19;5122650;28;20572;-75
2023/05/03 10:38:20;;;;;;;;;;;;;;;17.38;87.06;102690.94;5134038;28;20343;-75
2023/05/03 10:40:51;;;;;;;;;;;;;;;17.43;90.14;102688.56;5125503;28;19914;-74
2023/05/03 10:43:38;;;;;;;;;;;;;;;17.41;83.27;102687.88;5124431;28;19969;-74
2023/05/03 10:46:28;;;;;;;;;;;;;;;17.83;90.90;102696.78;5123883;28;20164;-74
2023/05/03 10:49:15;;;;;;;;;;;;;;;17.29;80.59;102688.19;5124492;28;19914;-75
2023/05/03 10:51:45;;;;;;;;;;;;;;;17.47;93.32;102682.66;5132743;28;19914;-74
2023/05/03 10:54:18;;;;;;;;;;;;;;;16.94;84.04;102681.16;5139014;28;19918;-75
2023/05/03 10:56:50;;;;;;;;;;;;;;;17.06;86.18;102679.81;5123318;28;19921;-75
2023/05/03 10:59:20;;;;;;;;;;;;;;;17.78;89.67;102680.16;5124354;28;19921;-75
2023/05/03 11:01:51;;;;;;;;;;;;;;;17.80;84.74;102680.81;5136287;28;20379;-75
2023/05/03 11:04:28;;;;;;;;;;;;;;;17.80;91.60;102672.69;5143937;28;20445;-74
2023/05/03 11:07:00;;;;;;;;;;;;;;;17.96;78.01;102679.13;5127881;28;19925;-74
2023/05/03 11:09:32;;;;;;;;;;;;;;;17.94;77.72;102679.31;5123520;28;19942;-75
2023/05/03 11:12:03;;;;;;;;;;;;;;;17.91;86.66;102671.50;5123707;28;19914;-74
2023/05/03 11:14:33;;;;;;;;;;;;;;;18.05;84.56;102672.69;5122942;28;20434;-75
2023/05/03 11:17:04;;;;;;;;;;;;;;;17.68;79.71;102665.03;5133380;28;19961;-75
2023/05/03 11:19:34;;;;;;;;;;;;;;;17.45;79.18;102673.81;5143074;28;19918;-75
2023/05/03 11:22:06;;;;;;;;;;;;;;;17.39;79.16;102668.22;5137413;28;20007;-75
2023/05/03 11:24:36;;;;;;;;;;;;;;;17.68;91.50;102662.31;5122919;28;20512;-75
2023/05/03 11:27:10;;;;;;;;;;;;;;;18.19;89.03;102665.69;5122627;28;19915;-75
2023/05/03 11:29:47;;;;;;;;;;;;;;;17.81;81.51;102660.81;5121679;28;19958;-75
2023/05/03 11:32:17;;;;;;;;;;;;;;;17.93;79.11;102650.47;5124112;28;20008;-75
2023/05/03 11:34:48;;;;;;;;;;;;;;;17.73;78.31;102644.53;5122226;28;20054;-75
2023/05/03 11:37:18;;;;;;;;;;;;;;;17.30;82.95;102648.34;5122352;28;20347;-75
2023/05/03 11:39:48;;;;;;;;;;;;;;;17.52;84.10;102652.28;5129996;28;19925;-75
2023/05/03 11:42:19;;;;;;;;;;;;;;;17.47;89.94;102650.09;5143223;28;20013;-75
2023/05/03 11:44:50;;;;;;;;;;;;;;;17.52;85.18;102649.56;5121533;28;19918;-75
2023/05/03 11:47:20;;;;;;;;;;;;;;;17.39;81.05;102649.22;5121144;28;20422;-75
2023/05/03 11:49:52;;;;;;;;;;;;;;;17.34;81.80;102638.88;5123244;28;19958;-75
2023/05/03 11:52:23;;;;;;;;;;;;;;;17.39;90.80;102631.09;5134340;28;20048;-75
2023/05/03 11:54:53;;;;;;;;;;;;;;;17.37;85.93;102626.81;5121482;28;19966;-75
2023/05/03 11:57:24;;;;;;;;;;;;;;;17.48;91.69;102634.66;5121986;28;19915;-75
2023/05/03 12:00:13;;;;;;;;;;;;;;;17.25;85.92;102619.03;5122665;28;19915;-75
2023/05/03 12:02:47;;;;;;;;;;;;;;;17.38;81.17;102623.13;5124034;28;19922;-75
2023/05/03 12:05:17;;;;;;;;;;;;;;;17.55;84.99;102616.66;5122813;28;19918;-75
2023/05/03 12:07:48;;;;;;;;;;;;;;;17.72;82.56;102610.25;5120959;28;20264;-75
2023/05/03 12:10:19;;;;;;;;;;;;;;;17.20;79.44;102604.25;5122934;28;19915;-75
2023/05/03 12:12:51;;;;;;;;;;;;;;;17.21;78.46;102600.53;5123392;28;19914;-75
2023/05/03 12:15:35;;;;;;;;;;;;;;;17.33;84.32;102591.91;5127354;28;19914;-75
2023/05/03 12:18:07;;;;;;;;;;;;;;;17.59;81.33;102583.59;5131884;28;20014;-75
2023/05/03 12:20:38;;;;;;;;;;;;;;;17.60;77.13;102579.03;5130335;28;19969;-75
2023/05/03 12:23:09;;;;;;;;;;;;;;;17.56;76.53;102580.38;5127445;28;19957;-75
2023/05/03 12:25:39;;;;;;;;;;;;;;;17.52;74.25;102576.28;5122906;28;20013;-75
2023/05/03 12:28:09;;;;;;;;;;;;;;;17.22;75.83;102581.41;5134296;28;19924;-75
2023/05/03 12:30:40;;;;;;;;;;;;;;;17.24;84.30;102576.66;5122507;28;19911;-75
2023/05/03 12:33:10;;;;;;;;;;;;;;;16.80;78.91;102581.47;5122820;28;20393;-75
2023/05/03 12:35:41;;;;;;;;;;;;;;;16.98;86.84;102567.81;5122846;28;19914;-75
2023/05/03 12:38:11;;;;;;;;;;;;;;;17.44;83.52;102562.75;5121386;28;19958;-75
2023/05/03 12:40:42;;;;;;;;;;;;;;;17.36;76.00;102555.44;5122953;28;19922;-75
2023/05/03 12:43:12;;;;;;;;;;;;;;;17.47;86.15;102556.97;5129814;28;20370;-75
2023/05/03 12:45:43;;;;;;;;;;;;;;;17.67;75.11;102549.31;5129410;28;20416;-74
2023/05/03 12:48:13;;;;;;;;;;;;;;;17.64;70.06;102546.97;5133136;28;19918;-75
2023/05/03 12:50:43;;;;;;;;;;;;;;;17.91;82.59;102533.03;5122933;28;20083;-75
2023/05/03 12:53:14;;;;;;;;;;;;;;;17.99;76.87;102534.88;5141842;28;19922;-75
2023/05/03 12:55:44;;;;;;;;;;;;;;;18.02;73.28;102532.66;5124400;28;19941;-75
2023/05/03 12:58:15;;;;;;;;;;;;;;;18.17;75.80;102531.91;5121939;28;19918;-75